Haga-Haga, South Africa
Current Conditions -  °F | °C
As of 2:00 PM on Wednesday 22 Oct 2014 (Local Time) from FAEL Reporting Station
Few Clouds Few Clouds  
Wind Chill: 73°   Ceiling: Unl
Heat Index: 73°   Visibility: 6mi
Dew Point: 61°   Wind: 24mph
Humidity: 65%   Direction: 60°ENE
Pressure: 30.06"   Gusts: 38mph
Location:  32.75°S, 28.25°E
Report Text: FAEL 221200Z 06021G33KT 9999 FEW017 23/16 Q1018
Loading
Personal Weather Stations






























Interactive Weather Map
Tropical Storm Tracking
New forecast layout! Learn more

10-Day Weather Forecast

Advertisements
Track Severe Weather on mobile